createdAt,value
2018-10-21T00:03:10.853Z,18.60
2018-10-21T00:07:14.337Z,23.77
2018-10-21T00:11:17.895Z,21.13
2018-10-21T00:15:21.497Z,19.77
2018-10-21T00:19:25.725Z,24.97
2018-10-21T00:23:29.279Z,23.90
2018-10-21T00:27:32.805Z,24.70
2018-10-21T00:31:36.293Z,21.90
2018-10-21T00:35:41.109Z,24.17
2018-10-21T00:39:44.847Z,28.63
2018-10-21T00:43:48.509Z,27.00
2018-10-21T00:47:52.110Z,29.90
2018-10-21T00:51:55.710Z,22.00
2018-10-21T00:55:59.257Z,23.50
2018-10-21T01:00:02.725Z,24.93
2018-10-21T01:04:06.839Z,20.73
2018-10-21T01:08:10.492Z,23.00
2018-10-21T01:12:13.977Z,25.87
2018-10-21T01:16:17.804Z,26.50
2018-10-21T01:20:21.494Z,24.40
2018-10-21T01:24:25.898Z,24.83
2018-10-21T01:28:29.603Z,24.97
2018-10-21T01:32:33.344Z,28.47
2018-10-21T01:36:37.061Z,26.53
2018-10-21T01:40:43.757Z,30.30
2018-10-21T01:44:47.385Z,23.13
2018-10-21T01:48:51.835Z,30.57
2018-10-21T01:52:57.495Z,24.40
2018-10-21T01:57:01.260Z,32.60
2018-10-21T02:01:04.969Z,24.40
2018-10-21T02:05:08.448Z,30.07
2018-10-21T02:09:13.956Z,29.13
2018-10-21T02:13:17.667Z,30.53
2018-10-21T02:17:21.254Z,27.00
2018-10-21T02:21:24.951Z,25.20
2018-10-21T02:25:28.546Z,27.73
2018-10-21T02:29:32.158Z,24.13
2018-10-21T02:33:35.873Z,25.57
2018-10-21T02:37:39.582Z,27.00
2018-10-21T02:41:55.806Z,31.23
2018-10-21T02:45:59.473Z,36.40
2018-10-21T02:50:03.034Z,30.13
2018-10-21T02:54:07.117Z,31.67
2018-10-21T02:58:10.704Z,29.57
2018-10-21T03:02:14.245Z,25.57
2018-10-21T03:06:17.939Z,26.60
2018-10-21T03:10:21.591Z,25.93
2018-10-21T03:14:25.105Z,25.10
2018-10-21T03:18:28.727Z,28.67
2018-10-21T03:22:32.250Z,34.03
2018-10-21T03:26:35.953Z,25.73
2018-10-21T03:30:39.701Z,26.03
2018-10-21T03:34:43.241Z,25.23
2018-10-21T03:38:47.089Z,28.97
2018-10-21T03:42:50.705Z,27.40
2018-10-21T03:46:54.455Z,28.67
2018-10-21T03:50:58.050Z,29.37
2018-10-21T03:55:01.657Z,28.83
2018-10-21T03:59:05.407Z,29.27
2018-10-21T04:03:09.322Z,33.27
2018-10-21T04:07:13.220Z,29.70
2018-10-21T04:11:16.789Z,32.43
2018-10-21T04:15:20.404Z,31.70
2018-10-21T04:19:24.053Z,43.23
2018-10-21T04:23:28.077Z,37.13
2018-10-21T04:27:31.660Z,37.13
2018-10-21T04:31:35.247Z,33.07
2018-10-21T04:35:39.036Z,31.43
2018-10-21T04:39:53.832Z,47.33
2018-10-21T04:43:57.507Z,34.47
2018-10-21T04:48:01.057Z,38.83
2018-10-21T04:52:04.682Z,41.37
2018-10-21T04:56:08.207Z,38.23
2018-10-21T05:00:14.681Z,36.47
2018-10-21T05:04:18.352Z,37.33
2018-10-21T05:08:21.808Z,37.50
2018-10-21T05:12:25.326Z,40.40
2018-10-21T05:16:28.847Z,40.50
2018-10-21T05:20:32.530Z,43.70
2018-10-21T05:24:36.515Z,40.60
2018-10-21T05:28:41.031Z,37.00
2018-10-21T05:32:44.621Z,39.90
2018-10-21T05:36:48.299Z,37.90
2018-10-21T05:40:51.877Z,35.97
2018-10-21T05:44:55.433Z,42.27
2018-10-21T05:48:59.158Z,42.87
2018-10-21T05:53:03.269Z,41.70
2018-10-21T05:57:06.902Z,38.53
2018-10-21T06:01:10.550Z,47.03
2018-10-21T06:05:32.907Z,41.73
2018-10-21T06:09:36.635Z,39.47
2018-10-21T06:13:40.516Z,40.40
2018-10-21T06:17:44.230Z,42.93
2018-10-21T06:21:48.280Z,44.93
2018-10-21T06:25:52.685Z,43.53
2018-10-21T06:29:56.639Z,42.43
2018-10-21T06:34:00.877Z,41.80
2018-10-21T06:38:04.873Z,46.47
2018-10-21T06:42:08.809Z,52.67
2018-10-21T06:46:12.619Z,45.47
2018-10-21T06:50:18.211Z,49.27
2018-10-21T06:54:22.046Z,47.27
2018-10-21T06:58:26.117Z,47.37
2018-10-21T07:02:30.383Z,40.07
2018-10-21T07:06:34.736Z,45.97
2018-10-21T07:10:38.545Z,55.13
2018-10-21T07:14:48.909Z,45.07
2018-10-21T07:18:53.357Z,45.30
2018-10-21T07:22:57.156Z,46.90
2018-10-21T07:27:00.992Z,49.73
2018-10-21T07:31:04.901Z,44.43
2018-10-21T07:35:10.683Z,44.70
2018-10-21T07:39:14.713Z,45.90
2018-10-21T07:43:18.516Z,44.87
2018-10-21T07:47:22.101Z,50.20
2018-10-21T07:51:25.770Z,40.73
2018-10-21T07:55:29.780Z,43.10
2018-10-21T07:59:33.438Z,48.07
2018-10-21T08:03:37.244Z,41.37
2018-10-21T08:07:52.177Z,42.67
2018-10-21T08:11:56.072Z,39.73
2018-10-21T08:15:59.828Z,42.13
2018-10-21T08:20:03.995Z,41.20
2018-10-21T08:24:07.634Z,43.93
2018-10-21T08:28:11.223Z,47.13
2018-10-21T08:32:14.832Z,44.90
2018-10-21T08:36:18.326Z,38.63
2018-10-21T08:40:22.098Z,39.10
2018-10-21T08:44:25.832Z,39.80
2018-10-21T08:48:29.513Z,35.50
2018-10-21T08:52:33.122Z,42.73
2018-10-21T08:56:36.745Z,42.63
2018-10-21T09:00:40.235Z,42.67
2018-10-21T09:04:43.945Z,34.40
2018-10-21T09:08:52.020Z,34.27
2018-10-21T09:12:55.899Z,38.10
2018-10-21T09:16:59.737Z,34.33
2018-10-21T09:21:03.436Z,33.93
2018-10-21T09:25:07.849Z,34.27
2018-10-21T09:29:11.402Z,33.73
2018-10-21T09:33:15.104Z,37.73
2018-10-21T09:37:18.644Z,31.20
2018-10-21T09:41:22.299Z,33.00
2018-10-21T09:45:25.876Z,33.07
2018-10-21T09:49:29.609Z,37.03
2018-10-21T09:53:33.461Z,32.53
2018-10-21T09:57:37.517Z,32.17
2018-10-21T10:01:46.966Z,30.10
2018-10-21T10:05:53.330Z,32.97
2018-10-21T10:09:57.661Z,32.33
2018-10-21T10:14:01.320Z,32.17
2018-10-21T10:18:05.029Z,32.93
2018-10-21T10:22:08.621Z,29.73
2018-10-21T10:26:12.149Z,34.10
2018-10-21T10:30:15.943Z,30.50
2018-10-21T10:34:19.517Z,29.60
2018-10-21T10:38:23.247Z,30.83
2018-10-21T10:42:30.211Z,30.50
2018-10-21T10:46:34.119Z,28.83
2018-10-21T10:50:38.439Z,32.47
2018-10-21T10:54:42.609Z,29.27
2018-10-21T10:58:47.447Z,24.03
2018-10-21T11:02:51.680Z,28.77
2018-10-21T11:06:56.251Z,29.93
2018-10-21T11:15:08.416Z,32.83
2018-10-21T11:19:12.105Z,27.10
2018-10-21T11:23:15.746Z,25.63
2018-10-21T11:27:19.361Z,27.23
2018-10-21T11:31:23.873Z,30.83
2018-10-21T11:35:27.662Z,24.13
2018-10-21T11:39:31.208Z,28.93
2018-10-21T11:43:34.953Z,27.97
2018-10-21T11:47:38.775Z,27.97
2018-10-21T11:51:42.404Z,23.27
2018-10-21T11:55:45.956Z,19.83
2018-10-21T11:59:49.792Z,19.37
2018-10-21T12:03:53.832Z,25.13
2018-10-21T12:07:57.664Z,19.70
2018-10-21T12:12:01.494Z,23.60
2018-10-21T12:16:05.533Z,18.97
2018-10-21T12:20:09.177Z,21.73
2018-10-21T12:24:14.157Z,16.67
2018-10-21T12:28:18.060Z,17.97
2018-10-21T12:32:21.640Z,16.70
2018-10-21T12:36:25.450Z,18.20
2018-10-21T12:40:29.196Z,18.20
2018-10-21T12:44:32.819Z,13.97
2018-10-21T12:48:37.150Z,18.57
2018-10-21T12:52:41.853Z,13.40
2018-10-21T12:56:45.512Z,16.97
2018-10-21T13:00:49.433Z,14.17
2018-10-21T13:04:53.575Z,15.00
2018-10-21T13:08:57.409Z,13.80
2018-10-21T13:13:01.373Z,14.30
2018-10-21T13:17:05.157Z,17.53
2018-10-21T13:21:09.024Z,13.07
2018-10-21T13:25:12.875Z,12.10
2018-10-21T13:29:16.643Z,12.70
2018-10-21T13:33:20.531Z,13.03
2018-10-21T13:37:25.081Z,11.47
2018-10-21T13:41:28.776Z,10.73
2018-10-21T13:45:32.432Z,13.03
2018-10-21T13:49:36.413Z,10.93
2018-10-21T13:53:40.052Z,11.63
2018-10-21T13:57:43.855Z,11.77
2018-10-21T14:01:47.827Z,10.63
2018-10-21T14:05:51.376Z,15.93
2018-10-21T14:09:55.039Z,13.40
2018-10-21T14:13:58.915Z,14.07
2018-10-21T14:18:02.484Z,13.90
2018-10-21T14:22:06.221Z,13.87
2018-10-21T14:26:10.828Z,17.00
2018-10-21T14:30:14.596Z,13.80
2018-10-21T14:34:18.166Z,16.27
2018-10-21T14:38:22.031Z,12.43
2018-10-21T14:42:26.114Z,13.33
2018-10-21T14:46:37.870Z,13.23
2018-10-21T14:50:41.542Z,14.93
2018-10-21T14:54:45.393Z,15.60
2018-10-21T14:58:49.737Z,15.83
2018-10-21T15:02:53.624Z,16.77
2018-10-21T15:06:59.219Z,13.77
2018-10-21T15:11:02.942Z,14.47
2018-10-21T15:15:07.381Z,15.20
2018-10-21T15:19:11.079Z,13.43
2018-10-21T15:23:14.912Z,14.43
2018-10-21T15:27:18.586Z,16.17
2018-10-21T15:31:22.219Z,10.97
2018-10-21T15:35:26.675Z,13.07
2018-10-21T15:39:30.266Z,12.70
2018-10-21T15:43:33.953Z,13.57
2018-10-21T15:47:37.629Z,15.17
2018-10-21T15:51:42.261Z,16.40
2018-10-21T15:55:45.965Z,17.03
2018-10-21T15:59:49.623Z,13.67
2018-10-21T16:03:53.521Z,14.73
2018-10-21T16:07:57.278Z,11.77
2018-10-21T16:12:01.143Z,13.80
2018-10-21T16:16:05.194Z,12.57
2018-10-21T16:20:08.921Z,10.03
2018-10-21T16:24:12.698Z,12.60
2018-10-21T16:28:16.212Z,13.70
2018-10-21T16:32:20.035Z,15.13
2018-10-21T16:36:23.446Z,13.40
2018-10-21T16:40:26.980Z,12.50
2018-10-21T16:44:31.192Z,12.17
2018-10-21T16:48:34.860Z,12.37
2018-10-21T16:52:38.401Z,13.97
2018-10-21T16:56:41.868Z,16.30
2018-10-21T17:00:45.903Z,17.00
2018-10-21T17:04:49.284Z,17.13
2018-10-21T17:08:52.895Z,11.60
2018-10-21T17:12:57.400Z,15.43
2018-10-21T17:17:00.911Z,12.93
2018-10-21T17:21:04.819Z,18.67
2018-10-21T17:25:09.738Z,16.77
2018-10-21T17:29:15.258Z,26.90
2018-10-21T17:33:18.969Z,29.20
2018-10-21T17:37:22.764Z,28.33
2018-10-21T17:41:26.504Z,32.73
2018-10-21T17:45:31.607Z,25.50
2018-10-21T17:49:35.312Z,25.03
2018-10-21T17:53:39.081Z,24.27
2018-10-21T17:57:42.932Z,16.40
2018-10-21T18:01:46.642Z,14.97
2018-10-21T18:05:50.438Z,14.33
2018-10-21T18:09:54.496Z,12.87
2018-10-21T18:13:58.536Z,12.67
2018-10-21T18:18:02.719Z,15.40
2018-10-21T18:22:06.933Z,17.83
2018-10-21T18:26:10.473Z,11.50
2018-10-21T18:30:13.940Z,11.33
2018-10-21T18:34:17.787Z,12.20
2018-10-21T18:38:21.261Z,11.07
2018-10-21T18:42:25.423Z,13.20
2018-10-21T18:46:29.202Z,10.23
2018-10-21T18:50:32.755Z,9.17
2018-10-21T18:54:36.362Z,10.33
2018-10-21T18:58:40.082Z,9.77
2018-10-21T19:02:43.724Z,8.47
2018-10-21T19:06:47.250Z,9.20
2018-10-21T19:10:50.803Z,10.70
2018-10-21T19:14:54.456Z,9.47
2018-10-21T19:18:58.109Z,11.07
2018-10-21T19:23:01.676Z,9.60
2018-10-21T19:27:05.546Z,11.30
2018-10-21T19:31:09.035Z,10.20
2018-10-21T19:35:13.606Z,12.07
2018-10-21T19:39:17.250Z,11.07
2018-10-21T19:43:20.863Z,10.33
2018-10-21T19:47:24.330Z,12.53
2018-10-21T19:51:27.950Z,12.20
2018-10-21T19:55:31.490Z,12.37
2018-10-21T19:59:35.011Z,11.90
2018-10-21T20:03:38.639Z,12.93
2018-10-21T20:07:42.153Z,14.00
2018-10-21T20:11:45.700Z,13.83
2018-10-21T20:15:49.369Z,14.60
2018-10-21T20:19:52.988Z,15.70
2018-10-21T20:23:56.866Z,13.17
2018-10-21T20:28:00.479Z,14.20
2018-10-21T20:32:04.145Z,12.73
2018-10-21T20:36:07.650Z,13.70
2018-10-21T20:40:11.480Z,15.77
2018-10-21T20:44:15.041Z,12.60
2018-10-21T20:48:18.493Z,12.13
2018-10-21T20:52:21.932Z,17.57
2018-10-21T20:56:25.470Z,14.10
2018-10-21T21:00:29.090Z,14.17
2018-10-21T21:04:32.624Z,20.43
2018-10-21T21:08:36.264Z,18.83
2018-10-21T21:12:39.772Z,13.83
2018-10-21T21:16:44.317Z,13.97
2018-10-21T21:20:48.050Z,19.43
2018-10-21T21:24:51.882Z,16.47
2018-10-21T21:28:55.845Z,16.77
2018-10-21T21:32:59.392Z,22.33
2018-10-21T21:37:02.949Z,16.80
2018-10-21T21:41:06.567Z,17.90
2018-10-21T21:45:10.314Z,17.80
2018-10-21T21:49:14.436Z,15.63
2018-10-21T21:53:18.028Z,15.17
2018-10-21T21:57:21.569Z,15.87
2018-10-21T22:01:25.210Z,17.60
2018-10-21T22:05:28.769Z,18.80
2018-10-21T22:09:33.542Z,22.43
2018-10-21T22:13:37.076Z,16.20
2018-10-21T22:17:41.465Z,15.97
2018-10-21T22:21:44.946Z,17.00
2018-10-21T22:25:48.471Z,15.70
2018-10-21T22:29:52.814Z,16.77
2018-10-21T22:33:56.364Z,19.50
2018-10-21T22:38:00.117Z,18.53
2018-10-21T22:42:03.591Z,21.20
2018-10-21T22:46:07.086Z,19.23
2018-10-21T22:50:11.805Z,23.17
2018-10-21T22:54:15.331Z,21.33
2018-10-21T22:58:18.825Z,22.77
2018-10-21T23:02:22.459Z,21.33
2018-10-21T23:06:25.964Z,19.10
2018-10-21T23:10:29.483Z,22.20
2018-10-21T23:14:33.030Z,21.10
2018-10-21T23:18:36.692Z,23.43
2018-10-21T23:22:40.266Z,19.50
2018-10-21T23:26:43.752Z,19.43
2018-10-21T23:30:47.202Z,20.33
2018-10-21T23:34:50.718Z,24.87
2018-10-21T23:38:54.288Z,20.50
2018-10-21T23:42:57.949Z,22.43
2018-10-21T23:47:01.515Z,22.57
2018-10-21T23:51:05.007Z,21.67
2018-10-21T23:55:08.698Z,20.67
2018-10-21T23:59:12.663Z,22.13
